Time;durP1;ratioP1;P1;durP2;ratioP2;P2;SDS_P1;SDS_P2;PMS_P1;PMS_P2;Temp;Humidity;BMP_temperature;BMP_pressure;BME280_temperature;BME280_humidity;BME280_pressure;Samples;Min_cycle;Max_cycle;Signal;HPM_P1;HPM_P2
2022/07/29 00:02:05;;;;;;;8.95;3.63;;;;;;;16.10;85.69;98153.28;5046704;28;20075;-68
2022/07/29 00:04:34;;;;;;;10.77;3.40;;;;;;;15.95;86.61;98152.19;5046680;28;20025;-68
2022/07/29 00:06:59;;;;;;;5.30;3.53;;;;;;;15.86;87.37;98157.97;5046623;28;20241;-68
2022/07/29 00:09:25;;;;;;;6.82;3.20;;;;;;;15.92;87.09;98167.44;5051989;28;20097;-68
2022/07/29 00:11:50;;;;;;;6.88;3.42;;;;;;;15.76;86.32;98154.00;5065691;28;20021;-68
2022/07/29 00:14:15;;;;;;;6.18;3.78;;;;;;;15.68;87.30;98158.84;5065885;28;20037;-68
2022/07/29 00:16:41;;;;;;;9.02;3.58;;;;;;;15.70;87.88;98151.69;5065841;28;20021;-68
2022/07/29 00:19:06;;;;;;;8.82;3.38;;;;;;;15.77;88.05;98157.53;5060140;28;20321;-68
2022/07/29 00:21:31;;;;;;;4.32;3.30;;;;;;;15.60;87.56;98150.34;5046391;28;20041;-68
2022/07/29 00:23:57;;;;;;;9.18;4.10;;;;;;;15.58;87.76;98157.56;5046327;28;20052;-68
2022/07/29 00:26:22;;;;;;;5.97;3.45;;;;;;;15.51;87.67;98155.25;5046295;28;20332;-68
2022/07/29 00:28:48;;;;;;;8.50;3.33;;;;;;;15.53;87.89;98159.53;5050733;28;20041;-68
2022/07/29 00:31:13;;;;;;;8.07;3.72;;;;;;;15.34;87.22;98158.63;5061236;28;20213;-68
2022/07/29 00:33:38;;;;;;;5.10;3.08;;;;;;;15.16;86.71;98152.38;5046100;28;20025;-68
2022/07/29 00:36:04;;;;;;;7.05;3.65;;;;;;;15.05;87.89;98148.50;5051816;28;20083;-68
2022/07/29 00:38:30;;;;;;;9.02;3.60;;;;;;;15.03;88.32;98145.91;5062541;28;20092;-68
2022/07/29 00:40:55;;;;;;;6.22;3.60;;;;;;;15.08;88.89;98145.72;5051171;28;20024;-68
2022/07/29 00:43:21;;;;;;;7.72;3.65;;;;;;;14.99;88.04;98146.09;5065108;28;20040;-68
2022/07/29 00:45:46;;;;;;;6.45;3.53;;;;;;;14.89;88.29;98140.38;5065316;28;20190;-68
2022/07/29 00:48:12;;;;;;;6.80;3.28;;;;;;;14.79;88.58;98138.19;5065091;28;20032;-68
2022/07/29 00:50:38;;;;;;;8.95;3.22;;;;;;;14.76;89.60;98138.31;5063763;28;20340;-68
2022/07/29 00:53:05;;;;;;;7.18;3.58;;;;;;;14.83;89.58;98147.72;5063864;28;20033;-68
2022/07/29 00:55:31;;;;;;;5.43;3.95;;;;;;;14.81;90.15;98142.47;5064946;28;20070;-68
2022/07/29 00:57:57;;;;;;;5.50;3.55;;;;;;;14.84;89.76;98138.88;5065231;28;20025;-68
2022/07/29 01:00:25;;;;;;;6.32;4.00;;;;;;;14.92;90.12;98140.25;5063652;28;20028;-68
2022/07/29 01:02:50;;;;;;;10.50;4.10;;;;;;;14.92;90.21;98140.25;5063370;28;20024;-68
2022/07/29 01:05:19;;;;;;;8.77;3.65;;;;;;;14.77;89.46;98126.78;5063590;28;20123;-68
2022/07/29 01:07:46;;;;;;;7.47;3.92;;;;;;;14.63;91.07;98131.84;5064544;28;20028;-68
2022/07/29 01:10:13;;;;;;;8.38;3.70;;;;;;;14.45;91.82;98133.50;5054092;28;20237;-68
2022/07/29 01:12:40;;;;;;;7.32;3.35;;;;;;;14.54;91.59;98129.59;5045354;28;20021;-67
2022/07/29 01:15:07;;;;;;;7.30;3.70;;;;;;;14.54;91.22;98132.22;5045331;28;20055;-67
2022/07/29 01:17:38;;;;;;;5.68;3.92;;;;;;;14.52;91.28;98129.66;5045307;28;20101;-67
2022/07/29 01:20:28;;;;;;;13.18;4.32;;;;;;;14.54;91.30;98129.59;5059076;28;20094;-67
2022/07/29 01:23:07;;;;;;;6.85;4.05;;;;;;;14.30;91.24;98120.06;5064645;28;20028;-67
2022/07/29 01:26:00;;;;;;;6.75;3.78;;;;;;;14.32;91.93;98120.84;5047967;28;20036;-67
2022/07/29 01:28:51;;;;;;;8.85;3.88;;;;;;;14.38;92.03;98120.56;5047671;28;20033;-67
2022/07/29 01:31:25;;;;;;;6.00;3.90;;;;;;;14.44;92.30;98122.97;5064424;28;20047;-67
2022/07/29 01:33:58;;;;;;;6.10;3.58;;;;;;;14.43;91.44;98124.75;5047059;28;20178;-67
2022/07/29 01:36:46;;;;;;;7.43;3.83;;;;;;;14.36;91.04;98125.06;5063524;28;20331;-67
2022/07/29 01:39:18;;;;;;;7.38;3.80;;;;;;;14.33;91.13;98122.56;5062648;28;20024;-67
2022/07/29 01:41:50;;;;;;;6.63;4.23;;;;;;;14.29;91.00;98115.66;5044862;28;20052;-67
2022/07/29 01:44:26;;;;;;;9.75;3.83;;;;;;;14.07;91.57;98120.09;5044816;28;20032;-67
2022/07/29 01:46:55;;;;;;;5.72;4.20;;;;;;;13.92;91.56;98118.94;5044700;28;20021;-67
2022/07/29 01:49:31;;;;;;;7.13;4.30;;;;;;;13.88;92.34;98124.41;5059408;28;20025;-67
2022/07/29 01:52:05;;;;;;;5.60;4.07;;;;;;;13.99;92.88;98117.75;5064147;28;20320;-67
2022/07/29 01:54:31;;;;;;;6.00;4.00;;;;;;;13.83;91.67;98116.66;5063830;28;20024;-67
2022/07/29 01:57:00;;;;;;;6.80;4.03;;;;;;;13.87;92.67;98120.06;5053383;28;20021;-67
2022/07/29 01:59:26;;;;;;;7.95;4.30;;;;;;;13.92;92.71;98123.41;5044544;28;20244;-67
2022/07/29 02:01:54;;;;;;;7.95;4.10;;;;;;;13.83;92.85;98121.13;5045190;28;20052;-67
2022/07/29 02:04:23;;;;;;;8.32;4.00;;;;;;;13.79;93.24;98119.53;5063818;28;20091;-67
2022/07/29 02:06:52;;;;;;;19.45;5.13;;;;;;;13.67;93.36;98120.00;5062214;28;20229;-67
2022/07/29 02:09:20;;;;;;;6.15;4.25;;;;;;;13.71;94.06;98124.25;5056890;28;20102;-67
2022/07/29 02:11:50;;;;;;;8.88;4.18;;;;;;;13.79;94.58;98122.16;5046076;28;20025;-67
2022/07/29 02:14:18;;;;;;;5.82;4.00;;;;;;;13.86;94.23;98126.28;5063667;28;20070;-67
2022/07/29 02:16:45;;;;;;;13.57;5.10;;;;;;;13.89;94.49;98131.44;5054480;28;20052;-67
2022/07/29 02:19:12;;;;;;;6.65;4.60;;;;;;;13.92;94.58;98131.34;5056402;28;20021;-67
2022/07/29 02:21:39;;;;;;;8.05;3.90;;;;;;;13.96;94.06;98132.91;5057105;28;20047;-67
2022/07/29 02:24:06;;;;;;;5.53;3.55;;;;;;;13.83;93.10;98121.13;5044455;28;20313;-67
2022/07/29 02:26:33;;;;;;;11.38;4.30;;;;;;;13.52;94.28;98116.19;5044186;28;20212;-67
2022/07/29 02:28:59;;;;;;;9.60;4.30;;;;;;;13.52;94.10;98125.88;5054260;28;20033;-67
2022/07/29 02:31:28;;;;;;;8.15;4.38;;;;;;;13.58;93.56;98121.22;5058311;28;20031;-67
2022/07/29 02:33:55;;;;;;;7.28;3.95;;;;;;;13.54;94.61;98129.34;5044106;28;20044;-67
2022/07/29 02:36:23;;;;;;;7.45;3.97;;;;;;;13.52;95.49;98133.81;5053542;28;20039;-67
2022/07/29 02:38:50;;;;;;;8.90;4.55;;;;;;;13.53;95.55;98135.53;5061757;28;20020;-67
2022/07/29 02:41:18;;;;;;;9.07;4.50;;;;;;;13.50;94.25;98133.00;5059501;28;20217;-67
2022/07/29 02:43:47;;;;;;;5.93;4.25;;;;;;;13.35;94.81;98128.34;5043918;28;20021;-67
2022/07/29 02:46:20;;;;;;;7.30;4.30;;;;;;;13.41;94.87;98130.75;5054819;28;20033;-67
2022/07/29 02:48:58;;;;;;;7.70;4.45;;;;;;;13.38;94.90;98128.22;5063207;28;20035;-67
2022/07/29 02:51:32;;;;;;;7.70;4.25;;;;;;;13.30;94.74;98123.22;5063244;28;20259;-67
2022/07/29 02:54:01;;;;;;;5.70;3.75;;;;;;;13.32;95.04;98133.72;5063234;28;20101;-67
2022/07/29 02:56:34;;;;;;;9.68;4.78;;;;;;;13.36;95.26;98137.97;5050591;28;20025;-67
2022/07/29 02:59:03;;;;;;;5.65;4.35;;;;;;;13.38;95.14;98144.06;5045006;28;20084;-67
2022/07/29 03:01:33;;;;;;;9.15;4.25;;;;;;;13.15;94.49;98138.78;5045495;28;20029;-67
2022/07/29 03:04:02;;;;;;;8.50;4.30;;;;;;;13.20;95.83;98142.13;5063412;28;20095;-67
2022/07/29 03:06:30;;;;;;;7.32;4.18;;;;;;;13.24;95.71;98143.72;5054383;28;20021;-67
2022/07/29 03:08:57;;;;;;;6.35;4.07;;;;;;;13.20;95.50;98144.75;5048885;28;20033;-67
2022/07/29 03:11:23;;;;;;;5.28;4.22;;;;;;;13.21;95.46;98142.06;5047611;28;20021;-67
2022/07/29 03:13:48;;;;;;;6.15;4.70;;;;;;;13.15;94.76;98146.69;5064232;28;20028;-67
2022/07/29 03:16:15;;;;;;;7.85;4.72;;;;;;;13.14;94.62;98155.56;5061360;28;20021;-67
2022/07/29 03:18:41;;;;;;;6.47;3.88;;;;;;;13.07;94.84;98155.78;5049834;28;20187;-67
2022/07/29 03:21:07;;;;;;;6.40;4.30;;;;;;;12.97;95.18;98158.78;5047445;28;20060;-67
2022/07/29 03:23:33;;;;;;;6.40;4.47;;;;;;;12.92;95.39;98161.56;5060137;28;20033;-67
2022/07/29 03:25:58;;;;;;;8.77;4.22;;;;;;;12.87;95.61;98157.38;5052277;28;20032;-67
2022/07/29 03:28:27;;;;;;;6.53;4.32;;;;;;;12.71;95.92;98151.81;5061707;28;20037;-67
2022/07/29 03:30:52;;;;;;;6.35;4.35;;;;;;;12.75;96.72;98148.13;5067209;28;20021;-67
2022/07/29 03:33:18;;;;;;;8.20;4.57;;;;;;;12.81;96.89;98153.19;5067151;28;20063;-67
2022/07/29 03:35:43;;;;;;;6.15;4.05;;;;;;;12.82;96.91;98152.25;5065321;28;20027;-67
2022/07/29 03:38:09;;;;;;;8.90;4.18;;;;;;;12.89;97.27;98156.44;5067151;28;20020;-67
2022/07/29 03:40:57;;;;;;;6.20;3.95;;;;;;;12.86;96.37;98155.66;5052909;28;20217;-67
2022/07/29 03:43:28;;;;;;;9.63;4.93;;;;;;;12.77;96.39;98156.00;5048271;28;20033;-67
2022/07/29 03:45:54;;;;;;;6.95;4.47;;;;;;;12.82;96.56;98162.00;5058590;28;20033;-67
2022/07/29 03:48:24;;;;;;;9.02;4.55;;;;;;;12.75;96.82;98166.59;5066814;28;20025;-67
2022/07/29 03:50:50;;;;;;;5.90;4.30;;;;;;;12.63;96.58;98163.56;5055901;28;20045;-67
2022/07/29 03:53:16;;;;;;;8.20;4.50;;;;;;;12.65;96.85;98162.56;5046829;28;20032;-67
2022/07/29 03:55:52;;;;;;;6.82;4.63;;;;;;;12.64;96.87;98168.78;5057561;28;20029;-67
2022/07/29 03:58:18;;;;;;;8.27;4.25;;;;;;;12.62;97.35;98167.97;5066701;28;20025;-67
2022/07/29 04:00:44;;;;;;;7.95;4.72;;;;;;;12.65;97.13;98170.50;5066640;28;20020;-67
2022/07/29 04:03:10;;;;;;;7.70;4.43;;;;;;;12.50;96.80;98167.53;5066625;28;20028;-67
2022/07/29 04:05:36;;;;;;;7.18;4.78;;;;;;;12.47;97.17;98165.00;5056719;28;20021;-67
2022/07/29 04:08:01;;;;;;;9.77;4.93;;;;;;;12.49;98.32;98173.69;5046543;28;20025;-67
2022/07/29 04:10:27;;;;;;;6.03;4.03;;;;;;;12.44;97.44;98173.84;5049980;28;20021;-67
2022/07/29 04:12:52;;;;;;;9.77;4.50;;;;;;;12.55;97.27;98181.41;5065582;28;20031;-67
2022/07/29 04:15:18;;;;;;;9.23;4.50;;;;;;;12.50;97.82;98178.94;5065093;28;20078;-67
2022/07/29 04:17:43;;;;;;;9.40;5.00;;;;;;;12.52;98.21;98177.13;5065384;28;20121;-67
2022/07/29 04:20:12;;;;;;;7.38;5.07;;;;;;;12.63;98.21;98185.50;5062906;28;20024;-67
2022/07/29 04:22:37;;;;;;;8.38;5.10;;;;;;;12.70;98.08;98181.78;5046383;28;20261;-67
2022/07/29 04:25:03;;;;;;;8.25;4.82;;;;;;;12.81;98.29;98190.16;5047517;28;20047;-67
2022/07/29 04:27:28;;;;;;;9.13;5.00;;;;;;;12.87;97.55;98189.94;5047157;28;20214;-67
2022/07/29 04:29:53;;;;;;;9.48;4.45;;;;;;;12.88;96.50;98181.09;5046263;28;20022;-67
2022/07/29 04:32:19;;;;;;;6.15;4.38;;;;;;;12.80;94.74;98184.94;5046225;28;20087;-67
2022/07/29 04:34:46;;;;;;;7.93;4.68;;;;;;;12.50;94.87;98178.94;5051717;28;20289;-67
2022/07/29 04:37:11;;;;;;;7.40;4.82;;;;;;;12.46;97.72;98187.88;5064145;28;20086;-67
2022/07/29 04:39:37;;;;;;;7.90;5.43;;;;;;;12.66;99.17;98195.97;5065511;28;20372;-67
2022/07/29 04:42:02;;;;;;;8.65;4.63;;;;;;;12.81;97.19;98195.44;5065392;28;20221;-67
2022/07/29 04:44:28;;;;;;;8.45;4.50;;;;;;;12.87;96.29;98199.63;5065107;28;20108;-67
2022/07/29 04:46:53;;;;;;;10.65;5.38;;;;;;;12.91;96.23;98196.00;5063957;28;20029;-67
2022/07/29 04:49:19;;;;;;;8.55;4.95;;;;;;;13.07;96.27;98208.63;5064923;28;20344;-67
2022/07/29 04:51:44;;;;;;;7.95;4.75;;;;;;;13.24;96.09;98193.94;5063938;28;20044;-67
2022/07/29 04:54:09;;;;;;;6.82;4.70;;;;;;;13.41;95.99;98202.13;5061885;28;20078;-67
2022/07/29 04:56:35;;;;;;;7.47;5.00;;;;;;;13.65;94.62;98206.47;5047151;28;20036;-67
2022/07/29 04:59:00;;;;;;;7.75;4.35;;;;;;;13.97;93.17;98203.41;5065131;28;20024;-67
2022/07/29 05:01:25;;;;;;;13.38;3.97;;;;;;;14.76;88.51;98196.59;5065115;28;20024;-67
2022/07/29 05:03:51;;;;;;;5.85;3.85;;;;;;;15.64;84.82;98205.03;5062638;28;20068;-67
2022/07/29 05:06:16;;;;;;;5.30;3.47;;;;;;;15.73;82.45;98209.91;5058708;28;20051;-67
2022/07/29 05:08:42;;;;;;;4.25;3.15;;;;;;;16.62;79.97;98203.78;5051287;28;20025;-67
2022/07/29 05:11:07;;;;;;;7.15;3.40;;;;;;;16.80;78.15;98202.81;5046629;28;20216;-67
2022/07/29 05:13:33;;;;;;;5.63;3.72;;;;;;;16.89;77.38;98213.00;5057406;28;20024;-67
2022/07/29 05:15:58;;;;;;;6.50;4.35;;;;;;;17.11;77.34;98223.38;5045932;28;20364;-67
2022/07/29 05:18:25;;;;;;;5.20;3.10;;;;;;;17.63;75.86;98226.84;5046511;28;20041;-67
2022/07/29 05:20:50;;;;;;;3.53;2.60;;;;;;;18.38;73.59;98218.16;5045262;28;20028;-67
2022/07/29 05:23:16;;;;;;;10.10;3.20;;;;;;;19.09;71.52;98221.97;5045190;28;20029;-67
2022/07/29 05:25:41;;;;;;;9.32;3.20;;;;;;;19.71;69.42;98237.69;5045192;28;20045;-67
2022/07/29 05:28:07;;;;;;;4.13;2.90;;;;;;;19.93;68.97;98238.06;5051875;28;20252;-67
2022/07/29 05:30:32;;;;;;;7.32;3.40;;;;;;;20.75;66.57;98228.25;5064194;28;20043;-67
2022/07/29 05:32:57;;;;;;;6.30;2.63;;;;;;;21.23;63.62;98230.38;5059498;28;20036;-67
2022/07/29 05:35:23;;;;;;;6.07;2.80;;;;;;;21.36;61.46;98225.00;5046425;28;20032;-67
2022/07/29 05:37:48;;;;;;;4.43;2.92;;;;;;;21.28;63.67;98234.44;5046066;28;20293;-67
2022/07/29 05:40:14;;;;;;;6.90;2.97;;;;;;;21.23;64.10;98231.19;5051192;28;20029;-67
2022/07/29 05:42:39;;;;;;;3.70;2.53;;;;;;;20.45;66.58;98231.16;5052712;28;20375;-67
2022/07/29 05:45:05;;;;;;;7.55;2.88;;;;;;;19.08;68.06;98214.91;5044727;28;20021;-67
2022/07/29 05:47:31;;;;;;;6.22;3.20;;;;;;;18.00;72.46;98218.59;5069405;28;20025;-67
2022/07/29 05:49:56;;;;;;;6.22;2.80;;;;;;;17.81;75.81;98221.38;5066680;28;20261;-67
2022/07/29 05:52:22;;;;;;;5.43;2.92;;;;;;;18.08;76.40;98229.66;5060351;28;20036;-67
2022/07/29 05:54:48;;;;;;;10.32;3.55;;;;;;;18.49;76.04;98236.22;5060997;28;20029;-67
2022/07/29 05:57:24;;;;;;;5.45;2.97;;;;;;;18.93;73.14;98238.03;5058780;28;20062;-67
2022/07/29 05:59:50;;;;;;;10.73;3.42;;;;;;;19.14;72.67;98235.88;5044748;28;20028;-67
2022/07/29 06:02:16;;;;;;;6.00;3.28;;;;;;;19.61;73.45;98247.22;5053012;28;20032;-67
2022/07/29 06:04:41;;;;;;;6.70;3.30;;;;;;;19.51;72.70;98251.41;5064681;28;20028;-67
2022/07/29 06:07:07;;;;;;;4.82;2.92;;;;;;;20.78;68.20;98255.66;5064321;28;20028;-67
2022/07/29 06:09:33;;;;;;;6.40;2.83;;;;;;;21.60;67.40;98260.78;5064515;28;20304;-67
2022/07/29 06:11:58;;;;;;;4.65;3.17;;;;;;;20.23;69.50;98254.00;5064539;28;20312;-67
2022/07/29 06:14:24;;;;;;;8.95;3.35;;;;;;;19.65;71.77;98251.41;5055873;28;20021;-67
2022/07/29 06:16:50;;;;;;;5.78;2.95;;;;;;;19.47;74.59;98257.91;5044245;28;20051;-67
2022/07/29 06:19:15;;;;;;;5.88;3.10;;;;;;;19.71;74.36;98258.22;5044203;28;20025;-67
2022/07/29 06:21:43;;;;;;;9.88;3.00;;;;;;;20.05;72.00;98269.38;5044153;28;20044;-67
2022/07/29 06:24:09;;;;;;;6.18;3.13;;;;;;;21.08;67.85;98261.69;5044390;28;20051;-67
2022/07/29 06:26:35;;;;;;;7.95;2.75;;;;;;;22.04;65.46;98269.28;5044060;28;20037;-67
2022/07/29 06:29:00;;;;;;;4.07;2.67;;;;;;;21.85;66.04;98276.91;5043854;28;20390;-67
2022/07/29 06:31:25;;;;;;;6.95;3.03;;;;;;;21.56;67.97;98264.66;5044108;28;20256;-67
2022/07/29 06:33:51;;;;;;;5.22;3.28;;;;;;;21.34;69.60;98270.63;5045204;28;20316;-67
2022/07/29 06:36:16;;;;;;;5.13;3.13;;;;;;;21.86;67.06;98268.75;5044723;28;20029;-67
2022/07/29 06:38:41;;;;;;;7.43;3.03;;;;;;;21.03;68.94;98261.13;5047867;28;20048;-67
2022/07/29 06:41:11;;;;;;;5.35;2.65;;;;;;;21.01;70.27;98259.53;5049198;28;20044;-67
2022/07/29 06:43:42;;;;;;;6.60;3.03;;;;;;;21.85;68.21;98276.91;5050895;28;20066;-69
2022/07/29 06:46:13;;;;;;;6.18;2.60;;;;;;;22.37;66.00;98277.59;5050802;28;20135;-69
2022/07/29 06:48:40;;;;;;;5.32;3.05;;;;;;;21.91;65.90;98260.41;5048199;28;20033;-69
2022/07/29 06:51:06;;;;;;;6.35;3.22;;;;;;;21.60;67.05;98261.66;5051222;28;20021;-69
2022/07/29 06:53:32;;;;;;;6.85;2.92;;;;;;;21.41;69.21;98271.09;5051691;28;20084;-69
2022/07/29 06:56:02;;;;;;;7.40;3.00;;;;;;;21.13;71.63;98270.25;5051951;28;20040;-69
2022/07/29 06:58:28;;;;;;;6.43;3.17;;;;;;;21.18;71.70;98284.22;5061333;28;20016;-69
2022/07/29 07:00:55;;;;;;;9.00;3.33;;;;;;;21.34;70.57;98289.38;5063215;28;20084;-69
2022/07/29 07:03:22;;;;;;;8.35;3.28;;;;;;;21.49;69.02;98284.78;5055746;28;20029;-69
2022/07/29 07:05:47;;;;;;;6.90;3.05;;;;;;;22.17;67.89;98299.59;5061690;28;20027;-69
2022/07/29 07:08:13;;;;;;;5.10;3.13;;;;;;;23.24;63.38;98304.16;5063018;28;20092;-69
2022/07/29 07:10:39;;;;;;;8.13;3.22;;;;;;;24.29;59.15;98313.84;5054223;28;20021;-69
2022/07/29 07:13:05;;;;;;;9.20;2.55;;;;;;;24.63;56.66;98304.78;5051561;28;20055;-68
2022/07/29 07:15:30;;;;;;;11.27;2.70;;;;;;;24.24;56.52;98302.59;5063078;28;20079;-68
2022/07/29 07:17:57;;;;;;;8.10;2.83;;;;;;;24.60;56.47;98307.72;5044731;28;20264;-68
2022/07/29 07:20:22;;;;;;;7.85;2.67;;;;;;;24.55;56.07;98309.91;5053292;28;20339;-68
2022/07/29 07:22:48;;;;;;;9.00;3.15;;;;;;;25.68;53.11;98318.44;5044748;28;20060;-68
2022/07/29 07:25:13;;;;;;;6.72;3.08;;;;;;;26.64;52.16;98326.16;5043588;28;20032;-68
2022/07/29 07:27:38;;;;;;;12.27;7.38;;;;;;;26.26;51.75;98309.75;5051709;28;20086;-68
2022/07/29 07:30:06;;;;;;;5.32;3.65;;;;;;;25.66;53.15;98304.25;5049010;28;20236;-68
2022/07/29 07:32:32;;;;;;;50.58;28.08;;;;;;;25.15;53.74;98302.22;5055330;28;20343;-68
2022/07/29 07:34:58;;;;;;;16.30;9.48;;;;;;;26.10;54.10;98320.19;5052229;28;20061;-68
2022/07/29 07:37:24;;;;;;;5.72;3.25;;;;;;;27.58;50.21;98330.03;5043470;28;20075;-67
2022/07/29 07:39:51;;;;;;;4.70;2.63;;;;;;;26.64;51.22;98320.75;5057957;28;20017;-67
2022/07/29 07:42:16;;;;;;;7.20;3.10;;;;;;;25.67;52.76;98305.94;5054254;28;20127;-68
2022/07/29 07:44:41;;;;;;;6.18;3.00;;;;;;;24.82;54.02;98296.94;5052329;28;20036;-68
2022/07/29 07:47:07;;;;;;;10.98;3.97;;;;;;;24.30;54.75;98291.31;5047105;28;20021;-68
2022/07/29 07:49:32;;;;;;;11.10;3.20;;;;;;;24.39;56.18;98303.22;5060420;28;20029;-68
2022/07/29 07:51:58;;;;;;;13.77;3.25;;;;;;;26.00;53.52;98321.97;5052214;28;20146;-68
2022/07/29 07:54:23;;;;;;;13.23;3.67;;;;;;;27.07;51.35;98322.16;5059785;28;20020;-68
2022/07/29 07:56:49;;;;;;;9.48;2.72;;;;;;;27.14;48.41;98319.72;5049910;28;20316;-68
2022/07/29 07:59:15;;;;;;;11.15;3.42;;;;;;;26.68;50.28;98316.78;5058791;28;20029;-68
2022/07/29 08:01:41;;;;;;;11.13;3.05;;;;;;;26.51;49.49;98314.72;5052968;28;20044;-68
2022/07/29 08:04:07;;;;;;;8.68;3.08;;;;;;;27.97;47.64;98331.75;5052073;28;20029;-68
2022/07/29 08:06:34;;;;;;;6.20;3.30;;;;;;;29.16;46.20;98345.31;5058264;28;20148;-68
2022/07/29 08:09:00;;;;;;;7.00;3.35;;;;;;;29.35;43.04;98321.81;5064311;28;20092;-68
2022/07/29 08:11:25;;;;;;;8.25;3.17;;;;;;;28.64;46.11;98328.88;5057312;28;20065;-68
2022/07/29 08:13:51;;;;;;;8.57;3.35;;;;;;;27.60;47.01;98322.66;5053339;28;20029;-68
2022/07/29 08:16:17;;;;;;;11.45;3.33;;;;;;;27.41;47.49;98319.94;5066416;28;20031;-68
2022/07/29 08:18:44;;;;;;;8.32;3.90;;;;;;;27.75;47.86;98325.78;5052328;28;20029;-68
2022/07/29 08:21:10;;;;;;;10.65;3.28;;;;;;;29.19;46.09;98336.88;5065755;28;20410;-68
2022/07/29 08:23:39;;;;;;;8.60;2.97;;;;;;;29.11;44.46;98335.94;5055027;28;20096;-68
2022/07/29 08:26:10;;;;;;;9.07;3.30;;;;;;;28.99;44.67;98338.00;5049917;28;20070;-68
2022/07/29 08:28:40;;;;;;;8.52;3.38;;;;;;;29.13;43.38;98333.91;5046569;28;20030;-68
2022/07/29 08:31:06;;;;;;;8.45;3.10;;;;;;;29.13;44.22;98337.50;5047319;28;20260;-68
2022/07/29 08:33:32;;;;;;;8.38;3.00;;;;;;;28.57;43.98;98331.31;5049759;28;20025;-68
2022/07/29 08:35:58;;;;;;;9.73;3.30;;;;;;;29.13;44.46;98345.63;5054590;28;20106;-68
2022/07/29 08:38:23;;;;;;;6.75;3.10;;;;;;;30.07;41.69;98347.75;5052465;28;20017;-69
2022/07/29 08:40:49;;;;;;;9.75;2.97;;;;;;;30.37;41.70;98343.78;5055553;28;20092;-69
2022/07/29 08:43:14;;;;;;;5.93;3.00;;;;;;;31.63;38.84;98351.78;5055277;28;20032;-69
2022/07/29 08:45:45;;;;;;;8.93;3.00;;;;;;;31.85;38.07;98351.19;5059309;28;20344;-69
2022/07/29 08:48:15;;;;;;;5.25;2.95;;;;;;;32.59;37.60;98357.25;5063500;28;20142;-69
2022/07/29 08:50:42;;;;;;;12.70;3.17;;;;;;;32.88;36.59;98359.44;5063393;28;20040;-69
2022/07/29 08:53:11;;;;;;;5.15;2.70;;;;;;;33.47;36.83;98352.56;5064162;28;20083;-68
2022/07/29 08:55:40;;;;;;;4.72;2.70;;;;;;;33.88;35.72;98356.75;5057227;28;20086;-68
2022/07/29 08:58:07;;;;;;;7.55;3.20;;;;;;;34.05;34.19;98347.38;5049176;28;20024;-69
2022/07/29 09:00:35;;;;;;;6.10;2.70;;;;;;;34.40;34.85;98346.75;5064430;28;20025;-68
2022/07/29 09:03:02;;;;;;;7.65;3.20;;;;;;;34.70;35.13;98342.97;5057109;28;20036;-69
2022/07/29 09:05:28;;;;;;;9.23;2.72;;;;;;;34.61;34.25;98346.88;5052433;28;20025;-69
2022/07/29 09:07:54;;;;;;;7.18;2.50;;;;;;;35.44;33.94;98348.28;5061455;28;20355;-69
2022/07/29 09:10:20;;;;;;;10.32;2.72;;;;;;;34.92;33.77;98344.81;5054769;28;20021;-69
2022/07/29 09:12:46;;;;;;;8.13;2.60;;;;;;;33.38;35.16;98326.34;5064853;28;20107;-69
2022/07/29 09:15:11;;;;;;;13.07;3.47;;;;;;;34.67;34.07;98343.41;5050287;28;20032;-69
2022/07/29 09:17:56;;;;;;;19.95;13.15;;;;;;;34.48;34.25;98333.84;5052149;28;20029;-69
2022/07/29 09:20:22;;;;;;;11.27;5.97;;;;;;;35.49;31.38;98340.31;5054520;28;20024;-69
2022/07/29 09:22:49;;;;;;;7.53;2.95;;;;;;;34.52;33.53;98335.16;5060451;28;20021;-69
2022/07/29 09:25:31;;;;;;;9.27;2.30;;;;;;;34.82;33.30;98336.03;5058642;28;20090;-69
2022/07/29 09:28:09;;;;;;;5.63;2.60;;;;;;;34.47;32.34;98334.03;5059118;28;20047;-69
2022/07/29 09:30:35;;;;;;;7.75;2.40;;;;;;;35.10;31.66;98338.94;5057607;28;20217;-69
2022/07/29 09:33:02;;;;;;;8.07;2.45;;;;;;;33.66;31.82;98320.16;5051668;28;20084;-69
2022/07/29 09:35:29;;;;;;;8.05;2.75;;;;;;;32.89;33.39;98321.09;5062661;28;20037;-69
2022/07/29 09:37:55;;;;;;;11.60;2.83;;;;;;;32.35;34.71;98329.22;5058539;28;20321;-69
2022/07/29 09:40:25;;;;;;;9.40;2.60;;;;;;;32.09;34.97;98321.25;5059934;28;20027;-69
2022/07/29 09:42:53;;;;;;;7.13;2.30;;;;;;;31.56;33.35;98311.81;5061273;28;20028;-69
2022/07/29 09:45:32;;;;;;;8.23;2.58;;;;;;;31.55;34.73;98321.88;5057274;28;20025;-69
2022/07/29 09:48:03;;;;;;;5.72;2.17;;;;;;;32.52;34.09;98334.47;5056941;28;20224;-69
2022/07/29 09:50:43;;;;;;;6.47;2.40;;;;;;;32.63;33.14;98331.38;5044949;28;20029;-69
2022/07/29 09:53:09;;;;;;;4.85;2.55;;;;;;;32.10;35.23;98328.38;5053789;28;20025;-69
2022/07/29 09:55:48;;;;;;;4.78;2.33;;;;;;;30.55;36.27;98309.22;5060067;28;20209;-69
2022/07/29 09:58:17;;;;;;;5.53;2.65;;;;;;;32.03;36.27;98343.69;5059153;28;20040;-69
2022/07/29 10:00:44;;;;;;;8.43;2.40;;;;;;;32.10;34.68;98324.78;5047375;28;20320;-69
2022/07/29 10:03:09;;;;;;;6.28;2.20;;;;;;;31.60;34.84;98322.19;5062086;28;20248;-69
2022/07/29 10:05:34;;;;;;;7.30;2.17;;;;;;;31.38;34.87;98314.69;5044493;28;20029;-69
2022/07/29 10:08:01;;;;;;;6.78;2.33;;;;;;;32.10;34.08;98328.38;5044224;28;20025;-69
2022/07/29 10:10:36;;;;;;;8.15;3.13;;;;;;;32.84;33.38;98334.38;5053150;28;20253;-69
2022/07/29 10:13:05;;;;;;;9.45;2.40;;;;;;;32.41;34.05;98318.50;5044428;28;20252;-69
2022/07/29 10:15:33;;;;;;;14.05;7.35;;;;;;;32.37;35.03;98319.88;5052568;28;20200;-69
2022/07/29 10:17:59;;;;;;;6.53;2.70;;;;;;;32.33;35.21;98318.50;5055128;28;20224;-69
2022/07/29 10:20:26;;;;;;;9.40;2.90;;;;;;;32.43;35.30;98319.16;5062399;28;20021;-69
2022/07/29 10:22:52;;;;;;;6.28;2.40;;;;;;;31.50;35.47;98301.63;5058860;28;20060;-69
2022/07/29 10:25:19;;;;;;;6.75;2.45;;;;;;;32.82;34.79;98328.25;5049149;28;20309;-69
2022/07/29 10:27:46;;;;;;;5.95;3.00;;;;;;;33.13;34.07;98316.53;5050497;28;20037;-69
2022/07/29 10:30:14;;;;;;;7.28;2.85;;;;;;;33.66;33.98;98322.06;5050832;28;20236;-69
2022/07/29 10:33:02;;;;;;;7.88;3.13;;;;;;;33.88;32.53;98318.50;5056256;28;20240;-69
2022/07/29 10:35:42;;;;;;;7.25;2.58;;;;;;;34.06;32.09;98322.59;5059015;28;20088;-69
2022/07/29 10:38:17;;;;;;;6.88;2.80;;;;;;;34.23;31.95;98317.84;5063062;28;20025;-69
2022/07/29 10:43:47;;;;;;;13.93;5.97;;;;;;;34.35;32.48;98316.34;5051031;28;20229;-69
2022/07/29 10:46:14;;;;;;;14.23;2.72;;;;;;;33.94;32.51;98302.22;5051213;28;20021;-69
2022/07/29 10:49:12;;;;;;;12.27;2.63;;;;;;;33.89;32.61;98299.22;5061892;28;20264;-69
2022/07/29 10:51:55;;;;;;;6.07;2.30;;;;;;;34.15;33.17;98304.25;5063501;28;20028;-69
2022/07/29 10:54:36;;;;;;;9.00;3.08;;;;;;;33.96;32.28;98302.91;5059017;28;20251;-69
2022/07/29 10:57:17;;;;;;;7.65;2.20;;;;;;;34.10;32.30;98299.34;5049790;28;20088;-69
2022/07/29 10:59:45;;;;;;;6.65;2.30;;;;;;;34.66;31.81;98309.72;5045965;28;20059;-69
2022/07/29 11:02:35;;;;;;;8.63;2.20;;;;;;;34.93;30.66;98300.84;5057873;28;20396;-69
2022/07/29 11:05:06;;;;;;;6.37;1.80;;;;;;;34.93;29.88;98300.03;5047337;28;20031;-69
2022/07/29 11:07:35;;;;;;;5.43;1.90;;;;;;;35.39;30.58;98295.97;5045203;28;20297;-69
2022/07/29 11:10:13;;;;;;;6.50;2.28;;;;;;;34.38;30.60;98285.94;5053356;28;20386;-69
2022/07/29 11:12:39;;;;;;;5.95;1.88;;;;;;;33.36;30.40;98269.22;5046175;28;20021;-69
2022/07/29 11:15:16;;;;;;;8.10;1.70;;;;;;;33.71;30.78;98289.56;5050303;28;20097;-69
2022/07/29 11:17:54;;;;;;;6.28;2.10;;;;;;;33.37;29.60;98286.44;5059887;28;20233;-69
2022/07/29 11:20:38;;;;;;;6.78;1.58;;;;;;;32.70;30.45;98272.41;5043927;28;20079;-69
2022/07/29 11:23:19;;;;;;;4.45;1.90;;;;;;;31.85;31.10;98274.13;5053744;28;20198;-69
2022/07/29 11:25:45;;;;;;;1.97;1.53;;;;;;;32.23;30.84;98282.38;5047392;28;20190;-69
2022/07/29 11:28:20;;;;;;;7.35;1.80;;;;;;;32.00;31.23;98278.69;5052270;28;20029;-69
2022/07/29 11:30:51;;;;;;;8.68;1.63;;;;;;;31.71;33.06;98286.50;5059134;28;20100;-69
2022/07/29 11:33:30;;;;;;;7.22;1.88;;;;;;;31.79;32.08;98278.31;5054689;28;20017;-69
2022/07/29 11:36:14;;;;;;;4.45;1.45;;;;;;;32.40;30.74;98286.78;5050926;28;20251;-69
2022/07/29 11:38:40;;;;;;;7.20;1.77;;;;;;;32.65;31.58;98285.69;5047100;28;20256;-69
2022/07/29 11:41:22;;;;;;;3.90;1.67;;;;;;;32.26;30.71;98284.78;5049629;28;20313;-69